Brooks, Kentucky
Current Conditions -  °F | °C
As of 12:56 PM on Friday 24 Oct 2014 (Local Time) from KSDF Reporting Station
Scattered Clouds Scattered Clouds  
Wind Chill: 62°   Ceiling: Unl
Heat Index: 62°   Visibility: 10mi
Dew Point: 45°   Wind: 6mph
Humidity: 53%   Direction: 180°S
Pressure: 30.12"   Gusts: NA
Location:  38.06°N, 85.71°W
Report Text: KSDF 241656Z 18005KT 10SM FEW035 FEW130 SCT150 17/07 A3012 RMK AO2 SLP199 T01670072
Loading
Personal Weather Stations






























Interactive Weather Map
Tropical Storm Tracking
New forecast layout! Learn more

10-Day Weather Forecast

Advertisements
Track Severe Weather on mobile